Time;durP1;ratioP1;P1;durP2;ratioP2;P2;SDS_P1;SDS_P2;PMS_P1;PMS_P2;Temp;Humidity;BMP_temperature;BMP_pressure;BME280_temperature;BME280_humidity;BME280_pressure;Samples;Min_cycle;Max_cycle;Signal;HPM_P1;HPM_P2
2022/11/20 00:01:13;;;;;;;1.17;0.60;;;;;;;1.80;71.38;101765.50;5018602;28;20049;-75
2022/11/20 00:03:40;;;;;;;1.67;0.50;;;;;;;1.68;71.06;101736.75;5018302;28;20585;-75
2022/11/20 00:06:11;;;;;;;0.40;0.40;;;;;;;1.84;71.55;101757.84;5016758;28;20060;-75
2022/11/20 00:08:38;;;;;;;1.00;0.40;;;;;;;1.84;70.72;101753.56;5020026;28;20048;-75
2022/11/20 00:11:06;;;;;;;1.52;0.70;;;;;;;1.85;70.45;101752.78;5016988;28;20053;-74
2022/11/20 00:13:33;;;;;;;1.30;0.50;;;;;;;1.86;71.18;101744.22;5019254;28;20045;-75
2022/11/20 00:16:01;;;;;;;0.90;0.45;;;;;;;1.86;71.13;101739.06;5020691;28;20041;-75
2022/11/20 00:18:28;;;;;;;0.65;0.38;;;;;;;1.88;71.34;101736.50;5023138;28;20430;-76
2022/11/20 00:21:02;;;;;;;1.10;0.40;;;;;;;1.89;71.29;101735.69;5018696;28;20053;-76
2022/11/20 00:23:30;;;;;;;0.93;0.60;;;;;;;1.88;70.91;101729.69;5014369;28;20421;-75
2022/11/20 00:25:57;;;;;;;0.40;0.30;;;;;;;1.89;70.86;101738.28;5018908;28;20410;-76
2022/11/20 00:28:24;;;;;;;1.20;0.40;;;;;;;1.90;70.90;101737.44;5018057;28;20060;-75
2022/11/20 00:30:51;;;;;;;1.05;0.25;;;;;;;1.90;70.98;101735.75;5016761;28;20069;-76
2022/11/20 00:33:18;;;;;;;0.20;0.20;;;;;;;1.91;71.28;101734.06;5021307;28;20052;-75
2022/11/20 00:35:45;;;;;;;0.77;0.20;;;;;;;1.90;70.97;101725.44;5016850;28;20407;-75
2022/11/20 00:38:12;;;;;;;0.57;0.20;;;;;;;1.90;70.93;101717.69;5016450;28;20073;-75
2022/11/20 00:40:40;;;;;;;0.17;0.17;;;;;;;1.89;71.22;101715.97;5019741;28;20041;-75
2022/11/20 00:43:07;;;;;;;0.50;0.10;;;;;;;1.89;71.04;101721.13;5018635;28;20050;-75
2022/11/20 00:45:34;;;;;;;0.45;0.10;;;;;;;1.82;71.51;101700.25;5019706;28;20047;-74
2022/11/20 00:48:00;;;;;;;0.73;0.73;;;;;;;1.85;70.83;101697.78;5015655;28;20050;-75
2022/11/20 00:50:27;;;;;;;1.75;0.20;;;;;;;1.89;71.39;101703.06;5013359;28;20053;-72
2022/11/20 00:52:54;;;;;;;0.30;0.20;;;;;;;1.89;70.71;101700.50;5020796;28;20060;-72
2022/11/20 00:55:21;;;;;;;0.20;0.10;;;;;;;1.90;71.14;101699.66;5015156;28;20042;-75
2022/11/20 00:57:49;;;;;;;1.05;0.73;;;;;;;1.87;70.69;101686.69;5017121;28;20049;-76
2022/11/20 01:00:17;;;;;;;0.32;0.10;;;;;;;1.88;71.06;101698.75;5014609;28;20391;-75
2022/11/20 01:02:43;;;;;;;0.20;0.20;;;;;;;1.83;71.19;101684.84;5016993;28;20132;-75
2022/11/20 01:05:10;;;;;;;0.22;0.15;;;;;;;1.86;71.05;101687.53;5015337;28;20046;-75
2022/11/20 01:07:37;;;;;;;0.77;0.20;;;;;;;1.86;71.71;101689.22;5015108;28;20083;-75
2022/11/20 01:10:05;;;;;;;0.68;0.20;;;;;;;1.84;72.11;101691.75;5020076;28;20111;-75
2022/11/20 01:12:32;;;;;;;0.68;0.30;;;;;;;1.79;71.77;101688.13;5018606;28;20050;-75
2022/11/20 01:15:00;;;;;;;0.30;0.30;;;;;;;1.79;71.22;101688.13;5017298;28;20511;-75
2022/11/20 01:17:27;;;;;;;0.30;0.17;;;;;;;1.79;71.15;101688.13;5017087;28;20049;-75
2022/11/20 01:19:54;;;;;;;0.30;0.20;;;;;;;1.78;71.21;101681.25;5018508;28;20124;-75
2022/11/20 01:22:21;;;;;;;0.25;0.13;;;;;;;1.78;71.44;101684.69;5018217;28;20053;-75
2022/11/20 01:24:48;;;;;;;0.98;0.17;;;;;;;1.79;70.89;101680.41;5018664;28;20133;-75
2022/11/20 01:27:15;;;;;;;0.20;0.20;;;;;;;1.64;71.83;101654.19;5018010;28;20041;-77
2022/11/20 01:29:41;;;;;;;0.20;0.20;;;;;;;1.80;71.18;101680.47;5021004;28;20060;-75
2022/11/20 01:32:10;;;;;;;0.30;0.20;;;;;;;1.79;72.13;101671.00;5023858;28;20053;-75
2022/11/20 01:34:37;;;;;;;0.82;0.20;;;;;;;1.80;71.18;101665.03;5016185;28;20050;-76
2022/11/20 01:37:04;;;;;;;0.30;0.20;;;;;;;1.81;71.28;101671.03;5018815;28;20054;-75
2022/11/20 01:39:31;;;;;;;3.20;0.30;;;;;;;1.77;71.80;101654.63;5021748;28;20056;-75
2022/11/20 01:44:53;;;;;;;0.10;0.10;;;;;;;1.75;71.17;101639.94;5022675;28;20445;-75
2022/11/20 01:47:36;;;;;;;0.30;0.10;;;;;;;1.79;71.44;101641.78;5021175;28;20392;-75
2022/11/20 01:50:10;;;;;;;0.40;0.20;;;;;;;1.51;72.27;101597.16;5016853;28;20054;-75
2022/11/20 01:52:42;;;;;;;0.30;0.30;;;;;;;1.80;71.07;101638.38;5020040;28;20069;-75
2022/11/20 01:55:12;;;;;;;0.63;0.20;;;;;;;1.75;71.93;101629.63;5020478;28;20050;-75
2022/11/20 01:57:41;;;;;;;0.73;0.30;;;;;;;1.79;71.22;101636.63;5017812;28;20049;-75
2022/11/20 02:00:10;;;;;;;0.35;0.20;;;;;;;1.79;70.95;101642.69;5024187;28;20054;-74
2022/11/20 02:02:41;;;;;;;0.30;0.22;;;;;;;1.80;71.74;101628.97;5020386;28;20045;-75
2022/11/20 02:05:18;;;;;;;2.28;0.28;;;;;;;1.81;71.86;101629.81;5021739;28;20079;-75
2022/11/20 02:07:46;;;;;;;0.32;0.20;;;;;;;1.80;71.45;101628.09;5020787;28;20055;-75
2022/11/20 02:10:15;;;;;;;0.65;0.20;;;;;;;1.77;72.11;101628.00;5021628;28;20060;-74
2022/11/20 02:15:26;;;;;;;0.30;0.20;;;;;;;1.79;71.18;101618.59;5026419;28;20098;-74
2022/11/20 02:17:55;;;;;;;0.20;0.20;;;;;;;1.80;71.89;101620.34;5020375;28;20418;-74
2022/11/20 02:20:22;;;;;;;0.20;0.20;;;;;;;1.79;72.13;101616.00;5018870;28;20058;-74
2022/11/20 02:22:55;;;;;;;0.65;0.10;;;;;;;1.60;72.21;101580.25;5019080;28;20038;-75
2022/11/20 02:25:25;;;;;;;0.20;0.10;;;;;;;1.78;72.18;101603.97;5019818;28;20046;-74
2022/11/20 02:27:52;;;;;;;0.20;0.10;;;;;;;1.62;71.94;101578.56;5019900;28;20136;-74
2022/11/20 02:30:20;;;;;;;0.00;0.00;;;;;;;1.77;71.43;101607.38;5020324;28;20053;-74
2022/11/20 02:32:47;;;;;;;1.65;0.10;;;;;;;1.75;71.98;101593.56;5021233;28;20041;-75
2022/11/20 02:35:42;;;;;;;1.98;0.10;;;;;;;1.77;71.66;101590.22;5019540;28;20053;-74
2022/11/20 02:38:09;;;;;;;0.00;0.00;;;;;;;1.75;71.76;101588.44;5023712;28;20088;-75
2022/11/20 02:40:38;;;;;;;0.10;0.00;;;;;;;1.75;71.56;101583.28;5020845;28;20064;-75
2022/11/20 02:43:04;;;;;;;0.15;0.00;;;;;;;1.74;72.54;101573.81;5019494;28;20052;-75
2022/11/20 02:45:31;;;;;;;0.10;0.10;;;;;;;1.73;72.20;101578.06;5018237;28;20080;-75
2022/11/20 02:47:58;;;;;;;0.15;0.10;;;;;;;1.72;71.75;101568.59;5018813;28;20041;-75
2022/11/20 02:50:26;;;;;;;0.45;0.10;;;;;;;1.71;72.12;101572.00;5018269;28;20045;-75
2022/11/20 02:52:52;;;;;;;0.15;0.10;;;;;;;1.66;71.96;101560.69;5018268;28;20050;-74
2022/11/20 02:55:20;;;;;;;0.10;0.10;;;;;;;1.66;72.39;101554.66;5019428;28;20054;-74
2022/11/20 02:57:48;;;;;;;0.10;0.10;;;;;;;1.74;72.40;101566.09;5020837;28;20410;-75
2022/11/20 03:00:15;;;;;;;0.20;0.10;;;;;;;1.71;71.89;101550.53;5019102;28;20056;-74
2022/11/20 03:02:42;;;;;;;0.00;0.00;;;;;;;1.71;71.88;101559.13;5018859;28;20112;-74
2022/11/20 03:05:09;;;;;;;0.00;0.00;;;;;;;1.71;72.64;101555.69;5019567;28;20121;-75
2022/11/20 03:07:36;;;;;;;0.08;0.00;;;;;;;1.65;72.92;101547.75;5021866;28;20049;-74
2022/11/20 03:10:03;;;;;;;0.10;0.00;;;;;;;1.69;72.54;101558.22;5018808;28;20050;-75
2022/11/20 03:12:30;;;;;;;0.20;0.10;;;;;;;1.70;72.54;101556.50;5019451;28;20550;-74
2022/11/20 03:14:59;;;;;;;0.20;0.10;;;;;;;1.70;72.98;101553.91;5020898;28;20064;-75
2022/11/20 03:17:25;;;;;;;0.00;0.00;;;;;;;1.68;72.08;101545.25;5021733;28;20052;-74
2022/11/20 03:19:52;;;;;;;0.00;0.00;;;;;;;1.70;71.96;101551.34;5019907;28;20057;-74
2022/11/20 03:22:19;;;;;;;0.30;0.00;;;;;;;1.69;72.16;101549.59;5015757;28;20041;-75
2022/11/20 03:24:46;;;;;;;0.08;0.00;;;;;;;1.60;72.34;101526.16;5019534;28;20140;-75
2022/11/20 03:27:13;;;;;;;0.20;0.20;;;;;;;1.71;72.15;101538.53;5021057;28;20053;-76
2022/11/20 03:29:40;;;;;;;0.32;0.10;;;;;;;1.70;72.44;101533.31;5019424;28;20072;-76
2022/11/20 03:32:09;;;;;;;0.15;0.10;;;;;;;1.71;72.85;101530.81;5019887;28;20050;-76
2022/11/20 03:34:36;;;;;;;0.25;0.10;;;;;;;1.71;72.59;101535.97;5018117;28;20038;-76
2022/11/20 03:37:03;;;;;;;0.17;0.10;;;;;;;1.71;72.56;101535.09;5019774;28;20402;-76
2022/11/20 03:39:29;;;;;;;0.30;0.10;;;;;;;1.64;72.39;101520.25;5019829;28;20513;-76
2022/11/20 03:41:56;;;;;;;0.15;0.10;;;;;;;1.49;72.60;101489.78;5017860;28;20128;-76
2022/11/20 03:44:23;;;;;;;0.30;0.17;;;;;;;1.69;72.36;101522.16;5019082;28;20054;-76
2022/11/20 03:46:50;;;;;;;0.13;0.10;;;;;;;1.68;72.62;101519.50;5018766;28;20056;-76
2022/11/20 03:49:19;;;;;;;0.20;0.13;;;;;;;1.56;72.87;101494.28;5024756;28;20045;-76
2022/11/20 03:51:46;;;;;;;2.50;0.20;;;;;;;1.67;72.12;101512.63;5019695;28;20061;-76
2022/11/20 03:54:12;;;;;;;0.10;0.10;;;;;;;1.68;73.21;101504.97;5016028;28;20134;-76
2022/11/20 03:56:40;;;;;;;0.10;0.10;;;;;;;1.68;72.59;101494.66;5016461;28;20054;-75
2022/11/20 03:59:07;;;;;;;1.02;0.10;;;;;;;1.69;72.88;101504.13;5020211;28;20053;-76
2022/11/20 04:01:36;;;;;;;0.10;0.10;;;;;;;1.63;72.48;101491.06;5018656;28;20045;-76
2022/11/20 04:04:04;;;;;;;0.20;0.15;;;;;;;1.64;71.92;101491.94;5017389;28;20054;-75
2022/11/20 04:06:35;;;;;;;0.40;0.20;;;;;;;1.72;72.08;101498.19;5019264;28;20494;-75
2022/11/20 04:09:03;;;;;;;0.28;0.10;;;;;;;1.61;72.38;101486.69;5018622;28;20525;-75
2022/11/20 04:11:32;;;;;;;0.30;0.10;;;;;;;1.71;72.37;101501.59;5017296;28;20054;-76
2022/11/20 04:14:00;;;;;;;2.75;0.20;;;;;;;1.66;72.45;101492.88;5016406;28;20052;-75
2022/11/20 04:16:29;;;;;;;0.47;0.30;;;;;;;1.69;72.40;101498.09;5017542;28;20520;-76
2022/11/20 04:18:59;;;;;;;0.20;0.10;;;;;;;1.68;72.92;101488.59;5019629;28;20055;-76
2022/11/20 04:21:26;;;;;;;0.30;0.20;;;;;;;1.68;72.43;101483.47;5018829;28;20145;-76
2022/11/20 04:23:56;;;;;;;2.22;0.52;;;;;;;1.69;72.12;101482.66;5019967;28;20046;-76
2022/11/20 04:26:24;;;;;;;1.25;0.10;;;;;;;1.68;72.80;101479.19;5017608;28;20045;-76
2022/11/20 04:28:52;;;;;;;0.20;0.13;;;;;;;1.68;72.92;101468.00;5023515;28;20083;-77
2022/11/20 04:31:21;;;;;;;0.15;0.10;;;;;;;1.64;72.08;101451.59;5018772;28;20088;-76
2022/11/20 04:33:48;;;;;;;0.30;0.28;;;;;;;1.66;72.21;101461.97;5020153;28;20071;-76
2022/11/20 04:36:17;;;;;;;0.90;0.40;;;;;;;1.66;73.13;101455.09;5014208;28;20054;-76
2022/11/20 04:38:45;;;;;;;0.40;0.17;;;;;;;1.66;73.01;101449.94;5013821;28;20513;-77
2022/11/20 04:41:16;;;;;;;1.92;0.30;;;;;;;1.61;73.14;101440.34;5019703;28;20521;-75
2022/11/20 04:43:47;;;;;;;0.50;0.30;;;;;;;1.65;72.17;101447.31;5021582;28;20054;-77
2022/11/20 04:46:14;;;;;;;0.17;0.13;;;;;;;1.58;73.05;101438.56;5020176;28;20136;-77
2022/11/20 04:48:41;;;;;;;0.28;0.10;;;;;;;1.66;73.44;101449.94;5020020;28;20773;-77
2022/11/20 04:51:08;;;;;;;0.20;0.20;;;;;;;1.53;73.14;101432.38;5025205;28;20053;-76
2022/11/20 04:53:35;;;;;;;0.90;0.82;;;;;;;1.53;72.98;101428.09;5018186;28;20041;-77
2022/11/20 04:56:02;;;;;;;0.85;0.32;;;;;;;1.63;73.31;101433.53;5018086;28;20049;-76
2022/11/20 04:58:30;;;;;;;0.45;0.20;;;;;;;1.52;73.28;101418.66;5014014;28;20487;-76
2022/11/20 05:01:03;;;;;;;0.52;0.22;;;;;;;1.62;73.36;101440.38;5019504;28;20085;-77
2022/11/20 05:03:30;;;;;;;0.20;0.15;;;;;;;1.58;72.44;101423.97;5020197;28;20406;-77
2022/11/20 05:05:57;;;;;;;1.17;0.40;;;;;;;1.57;73.21;101417.09;5022502;28;20041;-77
2022/11/20 05:08:24;;;;;;;0.40;0.20;;;;;;;1.63;73.42;101423.25;5023213;28;20041;-76
2022/11/20 05:10:50;;;;;;;0.50;0.30;;;;;;;1.60;73.10;101410.28;5021257;28;20520;-76
2022/11/20 05:13:17;;;;;;;0.38;0.20;;;;;;;1.63;72.71;101418.09;5027885;28;20073;-77
2022/11/20 05:15:46;;;;;;;0.50;0.30;;;;;;;1.63;73.48;101412.94;5019812;28;20060;-76
2022/11/20 05:18:13;;;;;;;0.30;0.20;;;;;;;1.63;72.66;101413.81;5018349;28;20155;-77
2022/11/20 05:20:39;;;;;;;0.70;0.30;;;;;;;1.53;72.94;101388.63;5019205;28;20537;-76
2022/11/20 05:23:06;;;;;;;0.30;0.20;;;;;;;1.61;73.51;101394.84;5022203;28;20057;-76
2022/11/20 05:25:33;;;;;;;2.75;0.25;;;;;;;1.67;73.16;101399.31;5021212;28;20057;-76
2022/11/20 05:28:00;;;;;;;0.35;0.20;;;;;;;1.58;73.41;101380.19;5021759;28;20160;-76
2022/11/20 05:30:27;;;;;;;1.40;0.30;;;;;;;1.57;73.03;101383.59;5022235;28;20100;-77
2022/11/20 05:32:55;;;;;;;0.32;0.20;;;;;;;1.34;72.96;101341.78;5019895;28;20136;-75
2022/11/20 05:35:22;;;;;;;0.93;0.20;;;;;;;1.67;73.50;101396.72;5021346;28;20830;-76
2022/11/20 05:37:49;;;;;;;0.40;0.30;;;;;;;1.66;73.34;101397.56;5017904;28;20048;-76
2022/11/20 05:40:16;;;;;;;0.20;0.20;;;;;;;1.64;73.27;101406.94;5018747;28;20121;-77
2022/11/20 05:42:43;;;;;;;0.30;0.20;;;;;;;1.61;73.39;101396.56;5019266;28;20129;-76
2022/11/20 05:45:11;;;;;;;0.45;0.30;;;;;;;1.39;74.19;101359.91;5026423;28;20056;-75
2022/11/20 05:47:37;;;;;;;0.30;0.20;;;;;;;1.61;73.57;101399.13;5024335;28;20142;-76
2022/11/20 05:50:07;;;;;;;1.38;0.20;;;;;;;1.60;73.82;101389.69;5023060;28;20075;-76
2022/11/20 05:52:34;;;;;;;2.60;0.40;;;;;;;1.61;73.85;101396.56;5019785;28;20151;-77
2022/11/20 05:55:00;;;;;;;0.50;0.20;;;;;;;1.62;73.99;101388.88;5023405;28;20046;-77
2022/11/20 05:57:27;;;;;;;0.40;0.32;;;;;;;1.51;74.31;101367.13;5028449;28;20051;-76
2022/11/20 05:59:54;;;;;;;0.65;0.30;;;;;;;1.35;74.49;101340.06;5021352;28;20048;-77
2022/11/20 06:02:21;;;;;;;0.30;0.20;;;;;;;1.65;74.17;101381.25;5019874;28;20076;-76
2022/11/20 06:04:48;;;;;;;1.98;0.30;;;;;;;1.64;74.35;101374.34;5026371;28;20529;-77
2022/11/20 06:07:17;;;;;;;0.22;0.20;;;;;;;1.65;74.11;101382.94;5018501;28;20499;-77
2022/11/20 06:09:44;;;;;;;0.55;0.20;;;;;;;1.63;74.46;101382.91;5028626;28;20041;-76
2022/11/20 06:12:11;;;;;;;0.20;0.20;;;;;;;1.61;73.90;101371.69;5023518;28;20096;-76
2022/11/20 06:14:38;;;;;;;0.50;0.20;;;;;;;1.62;74.25;101383.72;5023166;28;20048;-77
2022/11/20 06:17:05;;;;;;;0.43;0.30;;;;;;;1.52;74.60;101369.72;5020714;28;20577;-77
2022/11/20 06:19:32;;;;;;;0.20;0.20;;;;;;;1.63;73.89;101379.47;5015429;28;20064;-77
2022/11/20 06:21:59;;;;;;;0.68;0.30;;;;;;;1.33;74.40;101319.41;5022430;28;20069;-76
2022/11/20 06:24:27;;;;;;;0.73;0.20;;;;;;;1.46;73.93;101336.09;5020185;28;20074;-77
2022/11/20 06:26:54;;;;;;;0.30;0.20;;;;;;;1.33;73.90;101310.84;5020892;28;20038;-77
2022/11/20 06:29:21;;;;;;;0.30;0.28;;;;;;;1.64;74.18;101369.19;5022495;28;20085;-77
2022/11/20 06:31:48;;;;;;;0.30;0.22;;;;;;;1.65;74.25;101359.75;5022163;28;20053;-77
2022/11/20 06:34:15;;;;;;;0.30;0.30;;;;;;;1.70;73.97;101373.63;5021570;28;20104;-78
2022/11/20 06:36:42;;;;;;;0.30;0.30;;;;;;;1.62;74.13;101355.38;5018260;28;20050;-79
2022/11/20 06:39:09;;;;;;;0.30;0.30;;;;;;;1.71;73.96;101357.38;5018084;28;20557;-79
2022/11/20 06:41:37;;;;;;;0.25;0.20;;;;;;;1.55;74.49;101326.03;5019535;28;20463;-78
2022/11/20 06:44:05;;;;;;;0.60;0.30;;;;;;;1.63;74.17;101338.25;5021578;28;20052;-79
2022/11/20 06:46:32;;;;;;;0.55;0.20;;;;;;;1.72;73.77;101347.09;5022676;28;20066;-77
2022/11/20 06:48:59;;;;;;;0.40;0.20;;;;;;;1.72;74.25;101341.94;5022698;28;20686;-77
2022/11/20 06:51:26;;;;;;;0.88;0.30;;;;;;;1.62;74.06;101314.19;5020666;28;20064;-78
2022/11/20 06:53:54;;;;;;;0.50;0.30;;;;;;;1.72;73.70;101338.50;5022762;28;20143;-77
2022/11/20 06:56:21;;;;;;;0.30;0.28;;;;;;;1.71;73.60;101335.06;5021971;28;20038;-76
2022/11/20 06:58:49;;;;;;;0.70;0.20;;;;;;;1.73;73.66;101335.94;5022554;28;20392;-77
2022/11/20 07:01:17;;;;;;;0.25;0.20;;;;;;;1.73;73.45;101342.81;5019524;28;20048;-78
2022/11/20 07:03:44;;;;;;;0.40;0.30;;;;;;;1.73;74.26;101338.53;5021581;28;20132;-77
2022/11/20 07:06:11;;;;;;;1.48;0.28;;;;;;;1.72;73.51;101341.09;5022155;28;20715;-76
2022/11/20 07:08:38;;;;;;;0.43;0.20;;;;;;;1.69;74.32;101329.00;5023130;28;20104;-77
2022/11/20 07:11:07;;;;;;;1.10;0.15;;;;;;;1.71;74.68;101334.19;5026088;28;20049;-77
2022/11/20 07:13:35;;;;;;;0.30;0.20;;;;;;;1.60;73.72;101312.44;5026784;28;20049;-79
2022/11/20 07:16:06;;;;;;;0.28;0.10;;;;;;;1.72;73.79;101333.34;5024896;28;20055;-78
2022/11/20 07:18:34;;;;;;;0.20;0.20;;;;;;;1.68;73.95;101313.47;5019907;28;20058;-78
2022/11/20 07:21:02;;;;;;;0.20;0.20;;;;;;;1.56;73.97;101302.03;5017085;28;20046;-78
2022/11/20 07:23:28;;;;;;;0.20;0.10;;;;;;;1.66;73.62;101322.91;5017267;28;20125;-78
2022/11/20 07:25:56;;;;;;;0.30;0.20;;;;;;;1.64;73.53;101314.25;5024983;28;20049;-79
2022/11/20 07:28:22;;;;;;;1.50;0.20;;;;;;;1.69;73.53;101312.66;5024183;28;20125;-78
2022/11/20 07:30:52;;;;;;;0.20;0.10;;;;;;;1.69;73.88;101316.13;5025658;28;20046;-78
2022/11/20 07:33:21;;;;;;;0.40;0.10;;;;;;;1.62;73.68;101303.88;5025050;28;20060;-78
2022/11/20 07:35:48;;;;;;;1.55;0.20;;;;;;;1.64;73.97;101306.53;5015119;28;20469;-78
2022/11/20 07:38:15;;;;;;;0.70;0.50;;;;;;;1.68;73.57;101314.38;5015673;28;20050;-77
2022/11/20 07:40:42;;;;;;;0.10;0.10;;;;;;;1.66;74.08;101310.03;5018480;28;20418;-77
2022/11/20 07:43:09;;;;;;;2.92;0.20;;;;;;;1.67;73.73;101307.47;5021796;28;20147;-76
2022/11/20 07:45:36;;;;;;;1.35;0.45;;;;;;;1.70;73.94;101316.97;5021448;28;20136;-77
2022/11/20 07:48:03;;;;;;;0.60;0.10;;;;;;;1.71;73.89;101311.00;5018706;28;20068;-77
2022/11/20 07:50:31;;;;;;;0.75;0.17;;;;;;;1.55;73.53;101279.69;5025211;28;20124;-78
2022/11/20 07:53:03;;;;;;;0.10;0.05;;;;;;;1.72;74.00;101305.03;5017682;28;20073;-78
2022/11/20 07:55:30;;;;;;;0.65;0.10;;;;;;;1.72;74.17;101295.59;5017761;28;20041;-78
2022/11/20 07:57:58;;;;;;;1.15;0.10;;;;;;;1.72;73.61;101297.28;5019984;28;20044;-77
2022/11/20 08:00:26;;;;;;;0.65;0.10;;;;;;;1.73;73.82;101293.88;5015940;28;20053;-77
2022/11/20 08:02:53;;;;;;;0.10;0.10;;;;;;;1.75;73.59;101284.50;5015101;28;20061;-77
2022/11/20 08:05:21;;;;;;;0.73;0.13;;;;;;;1.74;73.40;101283.63;5018540;28;20059;-78
2022/11/20 08:07:50;;;;;;;0.40;0.10;;;;;;;1.73;73.61;101275.84;5023465;28;20080;-77
2022/11/20 08:10:17;;;;;;;1.77;0.20;;;;;;;1.60;73.82;101255.78;5019886;28;20042;-76
2022/11/20 08:15:30;;;;;;;2.80;0.10;;;;;;;1.72;73.91;101289.56;5020072;28;20430;-77
2022/11/20 08:18:02;;;;;;;0.52;0.15;;;;;;;1.65;73.80;101264.47;5017944;28;20057;-77
2022/11/20 08:20:29;;;;;;;0.45;0.20;;;;;;;1.71;74.29;101280.13;5025958;28;20711;-78
2022/11/20 08:23:01;;;;;;;2.13;0.20;;;;;;;1.71;73.56;101277.53;5020359;28;20403;-79
2022/11/20 08:25:29;;;;;;;0.22;0.20;;;;;;;1.71;73.67;101268.09;5015894;28;20042;-78
2022/11/20 08:27:59;;;;;;;1.85;0.13;;;;;;;1.71;73.73;101256.94;5022086;28;20045;-78
2022/11/20 08:30:27;;;;;;;0.30;0.17;;;;;;;1.63;74.15;101248.13;5019806;28;20042;-78
2022/11/20 08:33:01;;;;;;;0.30;0.20;;;;;;;1.67;74.25;101247.38;5021690;28;20053;-79
2022/11/20 08:35:28;;;;;;;3.33;0.13;;;;;;;1.72;73.91;101253.50;5014103;28;20042;-78
2022/11/20 08:37:55;;;;;;;2.45;0.20;;;;;;;1.71;73.63;101259.50;5017999;28;20050;-79
2022/11/20 08:40:24;;;;;;;0.50;0.20;;;;;;;1.72;73.85;101258.66;5020582;28;20128;-78
2022/11/20 08:42:51;;;;;;;0.20;0.20;;;;;;;1.64;73.50;101242.16;5018866;28;20042;-78
2022/11/20 08:45:19;;;;;;;0.38;0.20;;;;;;;1.72;73.62;101254.38;5018677;28;20045;-78
2022/11/20 08:47:47;;;;;;;0.70;0.20;;;;;;;1.72;73.63;101253.50;5022636;28;20049;-78
2022/11/20 08:50:16;;;;;;;1.38;0.10;;;;;;;1.71;73.49;101251.78;5020225;28;20041;-78
2022/11/20 08:52:43;;;;;;;0.73;0.20;;;;;;;1.70;73.20;101244.88;5022045;28;20049;-79
2022/11/20 08:55:11;;;;;;;0.65;0.20;;;;;;;1.68;74.12;101238.78;5021043;28;20053;-78
2022/11/20 08:57:40;;;;;;;0.10;0.10;;;;;;;1.63;73.56;101227.53;5017003;28;20057;-78
2022/11/20 09:00:11;;;;;;;0.63;0.10;;;;;;;1.70;73.62;101238.00;5026264;28;20143;-79
2022/11/20 09:02:38;;;;;;;0.20;0.10;;;;;;;1.67;74.13;101227.63;5019315;28;20107;-78
2022/11/20 09:05:06;;;;;;;0.30;0.20;;;;;;;1.69;73.88;101225.97;5019617;28;20068;-78
2022/11/20 09:07:33;;;;;;;0.10;0.10;;;;;;;1.70;73.98;101219.13;5024953;28;20050;-80
2022/11/20 09:10:00;;;;;;;2.40;0.10;;;;;;;1.71;73.76;101228.59;5020230;28;20135;-78
2022/11/20 09:12:27;;;;;;;0.55;0.03;;;;;;;1.71;74.23;101218.31;5011715;28;20049;-79
2022/11/20 09:14:55;;;;;;;0.10;0.10;;;;;;;1.71;74.25;101219.16;5017718;28;20066;-78
2022/11/20 09:17:22;;;;;;;0.10;0.10;;;;;;;1.70;74.13;101214.81;5014512;28;20056;-78
2022/11/20 09:19:49;;;;;;;0.10;0.08;;;;;;;1.71;74.05;101215.72;5015977;28;20054;-78
2022/11/20 09:22:16;;;;;;;0.13;0.10;;;;;;;1.74;74.32;101211.50;5020252;28;20038;-78
2022/11/20 09:24:43;;;;;;;0.10;0.05;;;;;;;1.72;74.20;101212.31;5018575;28;20066;-78
2022/11/20 09:27:10;;;;;;;2.85;0.10;;;;;;;1.75;73.96;101210.66;5030813;28;20132;-77
2022/11/20 09:29:37;;;;;;;0.20;0.10;;;;;;;1.62;74.34;101174.28;5019578;28;20045;-81
2022/11/20 09:32:06;;;;;;;0.00;0.00;;;;;;;1.78;73.46;101209.88;5019642;28;20041;-80
2022/11/20 09:34:32;;;;;;;0.10;0.10;;;;;;;1.79;74.63;101207.34;5018845;28;20054;-80
2022/11/20 09:36:59;;;;;;;0.00;0.00;;;;;;;1.76;73.56;101191.78;5021874;28;20077;-80
2022/11/20 09:39:26;;;;;;;0.20;0.10;;;;;;;1.78;74.07;101195.28;5017955;28;20796;-78
2022/11/20 09:42:15;;;;;;;0.00;0.00;;;;;;;1.78;74.24;101204.72;5024448;28;20132;-78
2022/11/20 09:44:57;;;;;;;0.00;0.00;;;;;;;1.73;73.60;101188.28;5023377;28;20060;-79
2022/11/20 09:47:41;;;;;;;0.73;0.00;;;;;;;1.77;73.98;101190.13;5026286;28;20078;-78
2022/11/20 09:50:24;;;;;;;0.17;0.10;;;;;;;1.73;74.01;101180.56;5029029;28;20041;-79
2022/11/20 09:53:05;;;;;;;0.52;0.20;;;;;;;1.74;74.03;101174.59;5022043;28;20454;-79
2022/11/20 09:55:33;;;;;;;0.30;0.20;;;;;;;1.61;73.83;101151.94;5030090;28;20049;-79
2022/11/20 09:58:00;;;;;;;0.00;0.00;;;;;;;1.68;74.41;101158.97;5020039;28;20152;-79
2022/11/20 10:00:30;;;;;;;0.00;0.00;;;;;;;1.71;73.64;101180.53;5024819;28;20100;-79
2022/11/20 10:03:05;;;;;;;0.00;0.00;;;;;;;1.53;74.03;101142.31;5021240;28;20064;-79
2022/11/20 10:05:40;;;;;;;0.55;0.05;;;;;;;1.66;74.48;101161.53;5018135;28;20129;-78
2022/11/20 10:08:13;;;;;;;;;;;;;;;1.65;74.22;101158.91;5019325;28;20158;-80
2022/11/20 10:10:50;;;;;;;0.03;0.00;;;;;;;1.64;73.72;101157.16;5020864;28;19963;-74
2022/11/20 10:13:37;;;;;;;0.10;0.00;;;;;;;1.63;74.49;101140.84;5018811;28;20056;-74
2022/11/20 10:16:20;;;;;;;1.35;0.10;;;;;;;1.53;74.45;101124.28;5018029;28;20085;-74
2022/11/20 10:19:02;;;;;;;0.30;0.20;;;;;;;1.63;74.51;101140.84;5020198;28;20045;-75
2022/11/20 10:21:39;;;;;;;0.82;0.20;;;;;;;1.57;75.04;101125.25;5016200;28;20056;-73
2022/11/20 10:24:36;;;;;;;0.20;0.15;;;;;;;1.64;73.92;101134.00;5015563;28;20089;-74
2022/11/20 10:27:15;;;;;;;0.20;0.10;;;;;;;1.56;74.89;101126.94;5019274;28;20049;-73
2022/11/20 10:29:47;;;;;;;0.20;0.10;;;;;;;1.53;74.16;101106.28;5016642;28;20564;-74
2022/11/20 10:32:17;;;;;;;0.10;0.10;;;;;;;1.66;74.56;101122.03;5020230;28;20045;-74
2022/11/20 10:34:53;;;;;;;0.40;0.10;;;;;;;1.66;74.90;101116.88;5019420;28;20123;-74
2022/11/20 10:37:24;;;;;;;0.45;0.38;;;;;;;1.66;74.71;101114.31;5022460;28;20570;-74
2022/11/20 10:39:57;;;;;;;0.10;0.05;;;;;;;1.69;74.56;101119.53;5017033;28;20065;-74
2022/11/20 10:42:31;;;;;;;0.40;0.10;;;;;;;1.68;74.65;101112.59;5017505;28;20041;-74
2022/11/20 10:45:10;;;;;;;0.73;0.10;;;;;;;1.68;75.38;101117.75;5021514;28;20133;-73
2022/11/20 10:47:37;;;;;;;0.55;0.00;;;;;;;1.66;74.73;101112.59;5018739;28;20045;-74
2022/11/20 10:50:12;;;;;;;0.73;0.00;;;;;;;1.66;75.15;101109.16;5019406;28;20052;-74
2022/11/20 10:52:49;;;;;;;0.37;0.10;;;;;;;1.61;74.82;101105.59;5018704;28;20407;-73
2022/11/20 10:55:28;;;;;;;0.10;0.00;;;;;;;1.65;74.15;101109.97;5018305;28;20287;-73
2022/11/20 10:58:06;;;;;;;0.03;0.03;;;;;;;1.65;74.60;101105.72;5018171;28;20125;-74
2022/11/20 11:00:33;;;;;;;0.13;0.10;;;;;;;1.58;74.64;101096.97;5017643;28;20107;-73
2022/11/20 11:03:02;;;;;;;0.10;0.08;;;;;;;1.65;74.71;101098.00;5015915;28;20548;-73
2022/11/20 11:05:38;;;;;;;2.65;0.10;;;;;;;1.66;74.77;101088.56;5017243;28;20418;-73
2022/11/20 11:08:12;;;;;;;0.10;0.03;;;;;;;1.65;74.65;101082.53;5020942;28;20049;-73
2022/11/20 11:10:47;;;;;;;1.85;0.20;;;;;;;1.65;74.84;101081.66;5017753;28;20069;-72
2022/11/20 11:13:21;;;;;;;1.45;0.00;;;;;;;1.67;75.14;101077.41;5017649;28;20060;-73
2022/11/20 11:15:48;;;;;;;0.10;0.10;;;;;;;1.67;74.52;101067.09;5015405;28;20045;-73
2022/11/20 11:18:24;;;;;;;0.50;0.10;;;;;;;1.64;74.72;101052.44;5017489;28;20601;-73
2022/11/20 11:20:55;;;;;;;0.10;0.10;;;;;;;1.72;74.46;101060.34;5021361;28;20061;-73
2022/11/20 11:23:36;;;;;;;0.10;0.10;;;;;;;1.70;74.47;101044.84;5015443;28;20077;-73
2022/11/20 11:26:05;;;;;;;0.25;0.10;;;;;;;1.68;74.68;101041.41;5016984;28;20049;-73
2022/11/20 11:28:33;;;;;;;0.82;0.15;;;;;;;1.75;74.86;101047.53;5019125;28;20041;-74
2022/11/20 11:31:00;;;;;;;0.47;0.20;;;;;;;1.75;74.44;101044.97;5018279;28;20052;-74
2022/11/20 11:33:28;;;;;;;1.30;0.20;;;;;;;1.72;74.70;101032.91;5016687;28;20045;-73
2022/11/20 11:35:59;;;;;;;0.22;0.10;;;;;;;1.71;74.45;101030.31;5017621;28;20045;-74
2022/11/20 11:38:31;;;;;;;0.10;0.10;;;;;;;1.69;74.47;101014.81;5017356;28;20056;-73
2022/11/20 11:40:58;;;;;;;0.38;0.10;;;;;;;1.71;74.58;101027.72;5018275;28;20073;-75
2022/11/20 11:46:32;;;;;;;0.52;0.52;;;;;;;1.73;74.92;101019.16;5021130;28;20052;-73
2022/11/20 11:49:01;;;;;;;0.10;0.10;;;;;;;1.73;74.26;101018.31;5019342;28;20050;-74
2022/11/20 11:51:37;;;;;;;0.00;0.00;;;;;;;1.60;74.52;100990.56;5018590;28;20045;-73
2022/11/20 11:54:13;;;;;;;0.47;0.10;;;;;;;1.73;74.49;101015.72;5016717;28;20054;-74